Time;durP1;ratioP1;P1;durP2;ratioP2;P2;SDS_P1;SDS_P2;PMS_P1;PMS_P2;Temp;Humidity;BMP_temperature;BMP_pressure;BME280_temperature;BME280_humidity;BME280_pressure;Samples;Min_cycle;Max_cycle;Signal;HPM_P1;HPM_P2
2020/12/16 00:00:27;;;;;;;96.43;23.60;;;;;;;;;;5073777;28;20361;-66
2020/12/16 00:02:52;;;;;;;108.60;30.27;;;;;;;;;;5073395;28;20278;-65
2020/12/16 00:05:18;;;;;;;58.53;24.30;;;;;;;;;;5073926;28;20247;-65
2020/12/16 00:07:43;;;;;;;56.67;25.60;;;;;;;;;;5073583;28;20716;-65
2020/12/16 00:10:10;;;;;;;34.23;21.97;;;;;;;;;;5073720;28;20111;-66
2020/12/16 00:12:39;;;;;;;29.90;20.55;;;;;;;;;;5071695;28;20273;-66
2020/12/16 00:15:05;;;;;;;32.08;21.08;;;;;;;;;;5072018;28;20032;-66
2020/12/16 00:17:30;;;;;;;32.00;21.23;;;;;;;;;;5073110;28;20025;-66
2020/12/16 00:19:55;;;;;;;39.80;25.17;;;;;;;;;;5073388;28;20064;-66
2020/12/16 00:22:20;;;;;;;44.43;26.87;;;;;;;;;;5073216;28;20309;-66
2020/12/16 00:24:45;;;;;;;31.83;19.48;;;;;;;;;;5073629;28;20259;-66
2020/12/16 00:27:11;;;;;;;33.53;19.30;;;;;;;;;;5073182;28;20047;-66
2020/12/16 00:29:37;;;;;;;22.15;16.20;;;;;;;;;;5071923;28;20331;-66
2020/12/16 00:32:03;;;;;;;30.88;18.77;;;;;;;;;;5072865;28;20040;-66
2020/12/16 00:34:28;;;;;;;36.60;17.80;;;;;;;;;;5073203;28;20024;-66
2020/12/16 00:36:53;;;;;;;28.58;16.83;;;;;;;;;;5072937;28;20113;-66
2020/12/16 00:39:20;;;;;;;24.20;16.90;;;;;;;;;;5072824;28;20115;-66
2020/12/16 00:41:46;;;;;;;22.02;16.38;;;;;;;;;;5071021;28;20263;-66
2020/12/16 00:44:11;;;;;;;19.45;15.02;;;;;;;;;;5072869;28;20013;-66
2020/12/16 00:46:36;;;;;;;18.63;14.43;;;;;;;;;;5072798;28;20096;-65
2020/12/16 00:49:01;;;;;;;17.77;13.53;;;;;;;;;;5072858;28;20246;-65
2020/12/16 00:51:26;;;;;;;18.00;14.05;;;;;;;;;;5072620;28;20277;-65
2020/12/16 00:53:52;;;;;;;20.33;15.15;;;;;;;;;;5072622;28;20037;-66
2020/12/16 00:56:17;;;;;;;19.10;14.60;;;;;;;;;;5071722;28;20020;-66
2020/12/16 00:58:42;;;;;;;19.80;16.52;;;;;;;;;;5072818;28;20446;-66
2020/12/16 01:01:07;;;;;;;18.90;15.90;;;;;;;;;;5072922;28;20055;-65
2020/12/16 01:03:32;;;;;;;17.38;14.02;;;;;;;;;;5072628;28;20129;-65
2020/12/16 01:05:58;;;;;;;17.90;13.67;;;;;;;;;;5072870;28;20096;-65
2020/12/16 01:08:23;;;;;;;16.42;14.05;;;;;;;;;;5072819;28;20566;-65
2020/12/16 01:10:48;;;;;;;16.42;13.85;;;;;;;;;;5073079;28;20354;-66
2020/12/16 01:13:13;;;;;;;17.25;13.02;;;;;;;;;;5072423;28;20027;-68
2020/12/16 01:15:38;;;;;;;17.57;13.37;;;;;;;;;;5072414;28;20548;-70
2020/12/16 01:18:04;;;;;;;17.63;13.70;;;;;;;;;;5073026;28;20254;-67
2020/12/16 01:20:29;;;;;;;17.50;13.23;;;;;;;;;;5072506;28;20635;-68
2020/12/16 01:22:54;;;;;;;17.33;13.80;;;;;;;;;;5072121;28;20025;-68
2020/12/16 01:25:21;;;;;;;17.67;14.05;;;;;;;;;;5072843;28;20485;-66
2020/12/16 01:27:55;;;;;;;15.35;13.75;;;;;;;;;;5072883;28;20048;-68
2020/12/16 01:30:21;;;;;;;16.02;13.13;;;;;;;;;;5076519;28;20020;-68
2020/12/16 01:32:46;;;;;;;15.73;13.80;;;;;;;;;;5076198;28;20062;-68
2020/12/16 01:35:12;;;;;;;16.80;14.32;;;;;;;;;;5076611;28;20059;-67
2020/12/16 01:37:37;;;;;;;16.98;14.02;;;;;;;;;;5076217;28;20157;-69
2020/12/16 01:40:04;;;;;;;15.95;13.30;;;;;;;;;;5076059;28;20013;-65
2020/12/16 01:42:29;;;;;;;18.80;15.10;;;;;;;;;;5076021;28;20070;-65
2020/12/16 01:44:54;;;;;;;20.08;16.13;;;;;;;;;;5076289;28;20016;-66
2020/12/16 01:47:19;;;;;;;16.60;13.93;;;;;;;;;;5075563;28;20466;-66
2020/12/16 01:49:45;;;;;;;23.63;15.77;;;;;;;;;;5076004;28;20016;-67
2020/12/16 01:52:14;;;;;;;20.75;16.00;;;;;;;;;;5075138;28;20250;-66
2020/12/16 01:54:39;;;;;;;21.38;17.13;;;;;;;;;;5075518;28;20079;-68
2020/12/16 01:57:04;;;;;;;22.42;16.52;;;;;;;;;;5075574;28;20560;-68
2020/12/16 01:59:37;;;;;;;23.63;16.70;;;;;;;;;;5075285;28;20142;-66
2020/12/16 02:02:05;;;;;;;23.27;16.60;;;;;;;;;;5073549;28;20032;-65
2020/12/16 02:04:37;;;;;;;19.38;15.10;;;;;;;;;;5073284;28;20013;-66
2020/12/16 02:07:06;;;;;;;23.52;15.88;;;;;;;;;;5073397;28;20342;-65
2020/12/16 02:09:36;;;;;;;20.55;15.15;;;;;;;;;;5075446;28;20025;-66
2020/12/16 02:12:06;;;;;;;20.33;15.93;;;;;;;;;;5075126;28;20028;-65
2020/12/16 02:14:32;;;;;;;20.15;15.60;;;;;;;;;;5075821;28;20024;-65
2020/12/16 02:16:58;;;;;;;15.70;13.73;;;;;;;;;;5075685;28;20377;-66
2020/12/16 02:19:26;;;;;;;14.95;13.35;;;;;;;;;;5075653;28;20023;-65
2020/12/16 02:21:51;;;;;;;18.92;13.25;;;;;;;;;;5075324;28;20008;-66
2020/12/16 02:24:17;;;;;;;17.73;13.85;;;;;;;;;;5075550;28;20020;-65
2020/12/16 02:26:43;;;;;;;14.63;12.65;;;;;;;;;;5075446;28;20025;-66
2020/12/16 02:29:08;;;;;;;16.02;12.32;;;;;;;;;;5074695;28;20142;-66
2020/12/16 02:31:34;;;;;;;17.33;13.23;;;;;;;;;;5074971;28;20056;-65
2020/12/16 02:33:59;;;;;;;13.38;11.98;;;;;;;;;;5075352;28;20048;-65
2020/12/16 02:36:25;;;;;;;14.98;12.43;;;;;;;;;;5074966;28;20696;-65
2020/12/16 02:38:51;;;;;;;14.33;11.90;;;;;;;;;;5074641;28;20051;-65
2020/12/16 02:41:16;;;;;;;14.85;12.65;;;;;;;;;;5074883;28;20254;-65
2020/12/16 02:43:41;;;;;;;13.32;11.93;;;;;;;;;;5075241;28;20032;-65
2020/12/16 02:46:07;;;;;;;12.53;11.23;;;;;;;;;;5075002;28;20062;-65
2020/12/16 02:48:32;;;;;;;13.60;11.57;;;;;;;;;;5074821;28;20660;-65
2020/12/16 02:50:57;;;;;;;12.98;11.68;;;;;;;;;;5074425;28;20255;-67
2020/12/16 02:53:22;;;;;;;15.43;12.07;;;;;;;;;;5074331;28;20066;-67
2020/12/16 02:55:47;;;;;;;12.77;11.47;;;;;;;;;;5074910;28;20106;-67
2020/12/16 02:58:12;;;;;;;13.52;11.93;;;;;;;;;;5074868;28;20297;-67
2020/12/16 03:00:38;;;;;;;12.93;11.53;;;;;;;;;;5074874;28;20036;-67
2020/12/16 03:03:03;;;;;;;13.43;11.93;;;;;;;;;;5073889;28;20330;-67
2020/12/16 03:05:28;;;;;;;12.90;11.30;;;;;;;;;;5074579;28;20258;-67
2020/12/16 03:07:53;;;;;;;16.77;12.97;;;;;;;;;;5074091;28;20620;-67
2020/12/16 03:10:18;;;;;;;13.90;12.03;;;;;;;;;;5074181;28;20259;-67
2020/12/16 03:12:43;;;;;;;17.60;11.40;;;;;;;;;;5074044;28;20688;-67
2020/12/16 03:15:09;;;;;;;15.83;12.27;;;;;;;;;;5074259;28;20247;-67
2020/12/16 03:17:34;;;;;;;14.25;12.23;;;;;;;;;;5074202;28;20685;-67
2020/12/16 03:19:59;;;;;;;12.75;11.45;;;;;;;;;;5072738;28;20354;-66
2020/12/16 03:22:24;;;;;;;17.40;13.07;;;;;;;;;;5073866;28;20023;-66
2020/12/16 03:24:49;;;;;;;16.20;11.48;;;;;;;;;;5074001;28;20239;-66
2020/12/16 03:27:15;;;;;;;14.37;11.57;;;;;;;;;;5073604;28;20025;-67
2020/12/16 03:29:40;;;;;;;15.20;11.57;;;;;;;;;;5074010;28;20341;-65
2020/12/16 03:32:05;;;;;;;19.95;12.13;;;;;;;;;;5073702;28;20266;-66
2020/12/16 03:34:30;;;;;;;18.10;12.93;;;;;;;;;;5074110;28;20060;-66
2020/12/16 03:36:55;;;;;;;19.15;13.38;;;;;;;;;;5074007;28;20282;-66
2020/12/16 03:39:21;;;;;;;15.25;13.23;;;;;;;;;;5073474;28;20438;-66
2020/12/16 03:41:46;;;;;;;15.30;12.87;;;;;;;;;;5073210;28;20017;-66
2020/12/16 03:44:11;;;;;;;14.13;12.47;;;;;;;;;;5073653;28;20795;-65
2020/12/16 03:46:36;;;;;;;15.00;12.00;;;;;;;;;;5073825;28;20254;-66
2020/12/16 03:49:01;;;;;;;14.15;11.95;;;;;;;;;;5073952;28;20723;-66
2020/12/16 03:51:26;;;;;;;14.82;12.20;;;;;;;;;;5072350;28;20103;-66
2020/12/16 03:53:52;;;;;;;14.47;12.07;;;;;;;;;;5073291;28;20013;-66
2020/12/16 03:56:17;;;;;;;14.97;13.30;;;;;;;;;;5073408;28;20299;-66
2020/12/16 03:58:43;;;;;;;18.17;13.85;;;;;;;;;;5073412;28;20578;-66
2020/12/16 04:01:09;;;;;;;15.57;12.77;;;;;;;;;;5073158;28;20020;-66
2020/12/16 04:03:35;;;;;;;19.17;14.50;;;;;;;;;;5073398;28;20527;-66
2020/12/16 04:06:01;;;;;;;19.90;14.80;;;;;;;;;;5073393;28;20020;-66
2020/12/16 04:08:26;;;;;;;22.70;16.00;;;;;;;;;;5073434;28;20424;-64
2020/12/16 04:10:52;;;;;;;20.45;16.48;;;;;;;;;;5072003;28;20024;-65
2020/12/16 04:13:17;;;;;;;19.05;15.07;;;;;;;;;;5073394;28;20031;-65
2020/12/16 04:15:43;;;;;;;18.10;15.20;;;;;;;;;;5073418;28;20020;-67
2020/12/16 04:18:08;;;;;;;21.50;15.20;;;;;;;;;;5073343;28;20021;-67
2020/12/16 04:20:33;;;;;;;21.05;15.85;;;;;;;;;;5073106;28;20016;-65
2020/12/16 04:22:59;;;;;;;23.15;17.42;;;;;;;;;;5072783;28;20044;-65
2020/12/16 04:25:24;;;;;;;26.10;18.48;;;;;;;;;;5073197;28;20048;-65
2020/12/16 04:27:50;;;;;;;23.57;17.20;;;;;;;;;;5072950;28;20028;-65
2020/12/16 04:30:15;;;;;;;23.67;17.83;;;;;;;;;;5073210;28;20290;-65
2020/12/16 04:32:40;;;;;;;26.33;18.87;;;;;;;;;;5072758;28;20422;-66
2020/12/16 04:35:05;;;;;;;26.90;18.83;;;;;;;;;;5073101;28;20265;-65
2020/12/16 04:37:30;;;;;;;27.83;19.50;;;;;;;;;;5072772;28;20255;-66
2020/12/16 04:39:56;;;;;;;27.77;19.03;;;;;;;;;;5072662;28;20290;-66
2020/12/16 04:42:21;;;;;;;24.33;17.27;;;;;;;;;;5072700;28;20255;-70
2020/12/16 04:44:46;;;;;;;25.27;18.47;;;;;;;;;;5072906;28;20304;-68
2020/12/16 04:47:11;;;;;;;31.90;18.48;;;;;;;;;;5073146;28;20247;-67
2020/12/16 04:49:37;;;;;;;31.77;20.92;;;;;;;;;;5072836;28;20489;-67
2020/12/16 04:52:03;;;;;;;28.75;19.58;;;;;;;;;;5072396;28;20021;-67
2020/12/16 04:54:28;;;;;;;31.08;20.42;;;;;;;;;;5072746;28;20029;-67
2020/12/16 04:56:54;;;;;;;31.23;21.63;;;;;;;;;;5072550;28;20017;-67
2020/12/16 04:59:19;;;;;;;30.80;19.95;;;;;;;;;;5072570;28;20369;-67
2020/12/16 05:01:44;;;;;;;29.63;19.27;;;;;;;;;;5072170;28;20017;-67
2020/12/16 05:04:09;;;;;;;25.53;19.07;;;;;;;;;;5076194;28;20247;-66
2020/12/16 05:06:36;;;;;;;24.08;17.80;;;;;;;;;;5076556;28;20635;-67
2020/12/16 05:09:03;;;;;;;26.98;18.52;;;;;;;;;;5076885;28;20086;-66
2020/12/16 05:11:33;;;;;;;29.52;18.98;;;;;;;;;;5076639;28;20017;-67
2020/12/16 05:14:12;;;;;;;29.73;19.25;;;;;;;;;;5077003;28;20028;-66
2020/12/16 05:16:52;;;;;;;25.52;17.35;;;;;;;;;;5077023;28;20023;-66
2020/12/16 05:19:36;;;;;;;29.58;20.23;;;;;;;;;;5076701;28;20450;-66
2020/12/16 05:22:11;;;;;;;33.63;21.55;;;;;;;;;;5076319;28;20025;-67
2020/12/16 05:24:36;;;;;;;31.08;20.08;;;;;;;;;;5076910;28;20462;-66
2020/12/16 05:27:02;;;;;;;32.13;20.33;;;;;;;;;;5076982;28;20073;-67
2020/12/16 05:29:27;;;;;;;35.88;22.95;;;;;;;;;;5076707;28;20021;-67
2020/12/16 05:31:52;;;;;;;31.85;21.85;;;;;;;;;;5076323;28;20097;-67
2020/12/16 05:34:18;;;;;;;30.63;21.33;;;;;;;;;;5076712;28;20070;-67
2020/12/16 05:36:43;;;;;;;32.58;22.50;;;;;;;;;;5076507;28;20028;-66
2020/12/16 05:39:10;;;;;;;33.57;23.13;;;;;;;;;;5076580;28;20445;-67
2020/12/16 05:41:35;;;;;;;35.75;23.38;;;;;;;;;;5076389;28;20270;-67
2020/12/16 05:44:20;;;;;;;33.60;23.57;;;;;;;;;;5076368;28;20024;-67
2020/12/16 05:46:47;;;;;;;32.03;22.60;;;;;;;;;;5076191;28;20780;-67
2020/12/16 05:49:42;;;;;;;32.58;22.95;;;;;;;;;;5076109;28;20099;-67
2020/12/16 05:52:07;;;;;;;34.15;21.50;;;;;;;;;;5066343;28;20032;-67
2020/12/16 05:54:35;;;;;;;30.23;22.00;;;;;;;;;;5075621;28;20426;-66
2020/12/16 05:57:12;;;;;;;33.60;23.38;;;;;;;;;;5075568;28;20469;-66
2020/12/16 05:59:37;;;;;;;31.38;24.27;;;;;;;;;;5075310;28;20020;-66
2020/12/16 06:02:04;;;;;;;30.08;21.88;;;;;;;;;;5075268;28;20035;-65
2020/12/16 06:04:32;;;;;;;30.08;23.08;;;;;;;;;;5075814;28;20334;-66
2020/12/16 06:06:57;;;;;;;35.10;23.52;;;;;;;;;;5075425;28;20039;-67
2020/12/16 06:09:23;;;;;;;36.30;25.63;;;;;;;;;;5075643;28;20425;-68
2020/12/16 06:11:53;;;;;;;30.90;23.73;;;;;;;;;;5074971;28;20508;-67
2020/12/16 06:14:19;;;;;;;29.02;22.70;;;;;;;;;;5074880;28;20017;-68
2020/12/16 06:16:46;;;;;;;31.23;23.90;;;;;;;;;;5075370;28;20039;-68
2020/12/16 06:19:18;;;;;;;28.67;23.08;;;;;;;;;;5075547;28;20071;-68
2020/12/16 06:21:47;;;;;;;30.40;23.23;;;;;;;;;;5075066;28;20017;-68
2020/12/16 06:24:13;;;;;;;28.73;21.92;;;;;;;;;;5075233;28;20021;-68
2020/12/16 06:26:41;;;;;;;31.25;23.85;;;;;;;;;;5074799;28;20419;-68
2020/12/16 06:29:07;;;;;;;32.40;24.35;;;;;;;;;;5074886;28;20028;-69
2020/12/16 06:31:32;;;;;;;28.60;22.37;;;;;;;;;;5074674;28;20360;-71
2020/12/16 06:34:02;;;;;;;32.88;24.67;;;;;;;;;;5073445;28;20396;-68
2020/12/16 06:36:29;;;;;;;32.17;23.45;;;;;;;;;;5075391;28;20120;-72
2020/12/16 06:38:54;;;;;;;29.23;23.67;;;;;;;;;;5075162;28;20408;-67
2020/12/16 06:41:24;;;;;;;25.80;22.13;;;;;;;;;;5074884;28;20066;-68
2020/12/16 06:43:55;;;;;;;28.30;22.45;;;;;;;;;;5073874;28;20009;-69
2020/12/16 06:46:33;;;;;;;28.35;22.23;;;;;;;;;;5072796;28;20020;-69
2020/12/16 06:48:58;;;;;;;28.98;23.67;;;;;;;;;;5072518;28;20161;-70
2020/12/16 06:51:24;;;;;;;30.45;23.63;;;;;;;;;;5072376;28;20024;-69
2020/12/16 06:54:02;;;;;;;31.02;24.30;;;;;;;;;;5071613;28;20108;-68
2020/12/16 06:56:28;;;;;;;28.30;23.13;;;;;;;;;;5073344;28;20009;-69
2020/12/16 06:58:53;;;;;;;27.92;22.85;;;;;;;;;;5073554;28;20078;-70
2020/12/16 07:01:18;;;;;;;30.65;22.40;;;;;;;;;;5074156;28;20032;-69
2020/12/16 07:03:43;;;;;;;27.73;22.93;;;;;;;;;;5074569;28;20462;-72
2020/12/16 07:06:29;;;;;;;25.67;21.10;;;;;;;;;;5074047;28;20337;-70
2020/12/16 07:09:13;;;;;;;24.70;21.88;;;;;;;;;;5074476;28;20017;-70
2020/12/16 07:11:39;;;;;;;22.52;19.92;;;;;;;;;;5073556;28;20012;-70
2020/12/16 07:14:08;;;;;;;24.00;20.65;;;;;;;;;;5074071;28;20401;-70
2020/12/16 07:16:34;;;;;;;21.17;18.90;;;;;;;;;;5073675;28;20492;-70
2020/12/16 07:18:59;;;;;;;23.83;20.17;;;;;;;;;;5074240;28;20009;-69
2020/12/16 07:21:25;;;;;;;23.53;19.40;;;;;;;;;;5073473;28;20016;-69
2020/12/16 07:23:54;;;;;;;22.65;20.27;;;;;;;;;;5074159;28;20334;-69
2020/12/16 07:26:27;;;;;;;21.73;19.42;;;;;;;;;;5072800;28;20048;-68
2020/12/16 07:28:53;;;;;;;21.63;19.27;;;;;;;;;;5073969;28;20017;-70
2020/12/16 07:31:18;;;;;;;21.20;18.58;;;;;;;;;;5073445;28;20025;-69
2020/12/16 07:33:43;;;;;;;22.58;18.17;;;;;;;;;;5073374;28;20020;-69
2020/12/16 07:36:09;;;;;;;19.77;17.67;;;;;;;;;;5073487;28;20021;-69
2020/12/16 07:38:35;;;;;;;18.02;16.23;;;;;;;;;;5073823;28;20032;-69
2020/12/16 07:41:00;;;;;;;19.45;16.02;;;;;;;;;;5073560;28;20405;-69
2020/12/16 07:43:25;;;;;;;18.40;16.55;;;;;;;;;;5072037;28;20500;-69
2020/12/16 07:46:00;;;;;;;19.77;17.48;;;;;;;;;;5072342;28;20395;-69
2020/12/16 07:48:25;;;;;;;21.63;16.30;;;;;;;;;;5073630;28;20545;-70
2020/12/16 07:51:07;;;;;;;21.52;17.30;;;;;;;;;;5073379;28;20103;-69
2020/12/16 07:53:33;;;;;;;17.02;15.23;;;;;;;;;;5072491;28;20037;-69
2020/12/16 07:56:02;;;;;;;19.88;16.75;;;;;;;;;;5073299;28;20016;-69
2020/12/16 07:58:29;;;;;;;19.63;15.52;;;;;;;;;;5073466;28;20065;-69
2020/12/16 08:01:04;;;;;;;17.92;15.55;;;;;;;;;;5073312;28;20025;-68
2020/12/16 08:03:30;;;;;;;20.20;15.68;;;;;;;;;;5072351;28;20048;-67
2020/12/16 08:05:58;;;;;;;15.70;14.02;;;;;;;;;;5071451;28;20059;-68
2020/12/16 08:08:23;;;;;;;19.88;15.40;;;;;;;;;;5072308;28;20024;-69
2020/12/16 08:10:48;;;;;;;17.35;15.50;;;;;;;;;;5072476;28;20020;-70
2020/12/16 08:13:24;;;;;;;15.27;13.70;;;;;;;;;;5072067;28;20052;-69
2020/12/16 08:15:49;;;;;;;15.60;13.90;;;;;;;;;;5072139;28;20290;-69
2020/12/16 08:18:15;;;;;;;16.27;14.18;;;;;;;;;;5072125;28;20396;-68
2020/12/16 08:20:42;;;;;;;16.10;14.18;;;;;;;;;;5072985;28;20029;-68
2020/12/16 08:23:10;;;;;;;15.57;13.80;;;;;;;;;;5072935;28;20021;-69
2020/12/16 08:25:36;;;;;;;16.50;14.57;;;;;;;;;;5073033;28;20009;-68
2020/12/16 08:28:04;;;;;;;16.48;13.55;;;;;;;;;;5072674;28;20025;-68
2020/12/16 08:30:30;;;;;;;17.73;15.70;;;;;;;;;;5066638;28;20013;-68
2020/12/16 08:33:02;;;;;;;20.00;15.27;;;;;;;;;;5087256;28;20021;-68
2020/12/16 08:35:29;;;;;;;17.02;13.40;;;;;;;;;;5081664;28;20028;-68
2020/12/16 08:37:55;;;;;;;18.00;13.63;;;;;;;;;;5079058;28;20021;-69
2020/12/16 08:40:21;;;;;;;14.57;13.07;;;;;;;;;;5074837;28;20052;-69
2020/12/16 08:42:46;;;;;;;20.90;13.85;;;;;;;;;;5076107;28;20059;-69
2020/12/16 08:45:11;;;;;;;16.80;13.20;;;;;;;;;;5080179;28;20028;-69
2020/12/16 08:47:37;;;;;;;13.07;11.75;;;;;;;;;;5071291;28;20040;-69
2020/12/16 08:50:11;;;;;;;13.90;11.68;;;;;;;;;;5073939;28;20028;-69
2020/12/16 08:52:41;;;;;;;14.00;12.48;;;;;;;;;;5084073;28;20077;-69
2020/12/16 08:55:17;;;;;;;14.07;12.57;;;;;;;;;;5083307;28;20044;-69
2020/12/16 08:57:49;;;;;;;15.07;11.93;;;;;;;;;;5092055;28;20561;-68
2020/12/16 09:00:14;;;;;;;15.52;13.05;;;;;;;;;;5060390;28;20031;-68
2020/12/16 09:02:39;;;;;;;17.05;12.73;;;;;;;;;;5084600;28;20017;-68
2020/12/16 09:05:05;;;;;;;13.70;12.23;;;;;;;;;;5082879;28;20020;-68
2020/12/16 09:07:30;;;;;;;14.43;12.82;;;;;;;;;;5091836;28;20266;-69
2020/12/16 09:09:55;;;;;;;17.17;13.35;;;;;;;;;;5075642;28;20035;-70
2020/12/16 09:12:22;;;;;;;15.50;12.73;;;;;;;;;;5077884;28;20103;-69
2020/12/16 09:15:02;;;;;;;15.85;14.10;;;;;;;;;;5081491;28;20077;-71
2020/12/16 09:17:31;;;;;;;15.02;13.43;;;;;;;;;;5084971;28;20381;-71
2020/12/16 09:19:57;;;;;;;14.63;12.93;;;;;;;;;;5059264;28;20016;-70
2020/12/16 09:22:23;;;;;;;15.07;13.57;;;;;;;;;;5092103;28;20173;-71
2020/12/16 09:24:48;;;;;;;16.42;14.00;;;;;;;;;;5092966;28;20020;-71
2020/12/16 09:27:13;;;;;;;14.75;13.32;;;;;;;;;;5091306;28;20031;-70
2020/12/16 09:29:42;;;;;;;15.20;13.65;;;;;;;;;;5092805;28;20027;-70
2020/12/16 09:32:09;;;;;;;15.73;13.55;;;;;;;;;;5092499;28;20016;-71
2020/12/16 09:34:39;;;;;;;15.30;13.15;;;;;;;;;;5092842;28;20024;-71
2020/12/16 09:37:24;;;;;;;16.08;14.48;;;;;;;;;;5090624;28;20028;-71
2020/12/16 09:39:50;;;;;;;16.50;14.30;;;;;;;;;;5066020;28;20020;-71
2020/12/16 09:42:18;;;;;;;14.70;13.20;;;;;;;;;;5069593;28;20020;-71
2020/12/16 09:44:48;;;;;;;15.20;13.25;;;;;;;;;;5069777;28;20012;-71
2020/12/16 09:47:15;;;;;;;15.23;13.55;;;;;;;;;;5072210;28;20016;-71
2020/12/16 09:49:42;;;;;;;15.88;12.77;;;;;;;;;;5082224;28;20027;-71
2020/12/16 09:52:23;;;;;;;14.68;12.68;;;;;;;;;;5085284;28;20008;-71
2020/12/16 09:54:48;;;;;;;13.63;12.23;;;;;;;;;;5073176;28;20021;-70
2020/12/16 09:57:19;;;;;;;12.57;11.38;;;;;;;;;;5070953;28;20029;-70
2020/12/16 09:59:45;;;;;;;12.68;11.52;;;;;;;;;;5090913;28;20390;-70
2020/12/16 10:02:14;;;;;;;11.27;10.18;;;;;;;;;;5078927;28;20012;-69
2020/12/16 10:04:39;;;;;;;11.15;9.93;;;;;;;;;;5083959;28;20048;-70
2020/12/16 10:07:04;;;;;;;11.30;10.20;;;;;;;;;;5077817;28;20044;-70
2020/12/16 10:09:35;;;;;;;10.23;9.23;;;;;;;;;;5075123;28;20270;-70
2020/12/16 10:12:03;;;;;;;10.98;9.93;;;;;;;;;;5075290;28;20336;-70
2020/12/16 10:14:29;;;;;;;9.60;8.60;;;;;;;;;;5075713;28;20028;-70
2020/12/16 10:16:57;;;;;;;10.85;9.75;;;;;;;;;;5066091;28;20020;-70
2020/12/16 10:19:27;;;;;;;9.73;8.82;;;;;;;;;;5073464;28;20027;-69
2020/12/16 10:21:52;;;;;;;10.63;9.00;;;;;;;;;;5068139;28;20242;-68
2020/12/16 10:24:18;;;;;;;9.38;8.48;;;;;;;;;;5067839;28;20184;-68
2020/12/16 10:26:49;;;;;;;9.20;8.30;;;;;;;;;;5071250;28;20019;-68
2020/12/16 10:29:17;;;;;;;10.90;8.20;;;;;;;;;;5066940;28;20017;-68
2020/12/16 10:31:46;;;;;;;10.30;9.25;;;;;;;;;;5068206;28;20009;-68
2020/12/16 10:34:11;;;;;;;10.57;8.73;;;;;;;;;;5076741;28;20099;-70
2020/12/16 10:36:36;;;;;;;8.13;7.43;;;;;;;;;;5057846;28;20434;-71
2020/12/16 10:39:01;;;;;;;7.80;7.00;;;;;;;;;;5057137;28;20262;-73
2020/12/16 10:41:26;;;;;;;7.65;6.82;;;;;;;;;;5074629;28;20255;-73
2020/12/16 10:43:54;;;;;;;7.80;7.10;;;;;;;;;;5074862;28;20056;-71
2020/12/16 10:46:19;;;;;;;7.78;7.07;;;;;;;;;;5073730;28;20259;-69
2020/12/16 10:48:44;;;;;;;8.07;7.27;;;;;;;;;;5056248;28;20155;-69
2020/12/16 10:51:10;;;;;;;8.30;7.50;;;;;;;;;;5085180;28;20728;-69
2020/12/16 10:53:37;;;;;;;8.20;7.28;;;;;;;;;;5088627;28;20077;-69
2020/12/16 10:56:03;;;;;;;7.38;6.65;;;;;;;;;;5074974;28;20016;-69
2020/12/16 10:58:28;;;;;;;7.75;6.97;;;;;;;;;;5065229;28;20066;-70
2020/12/16 11:00:54;;;;;;;7.45;6.75;;;;;;;;;;5059387;28;20331;-69
2020/12/16 11:03:19;;;;;;;7.03;6.37;;;;;;;;;;5054076;28;20021;-69
2020/12/16 11:05:44;;;;;;;7.72;6.95;;;;;;;;;;5054151;28;20258;-69
2020/12/16 11:08:09;;;;;;;7.60;7.00;;;;;;;;;;5067155;28;20533;-68
2020/12/16 11:10:34;;;;;;;7.53;6.72;;;;;;;;;;5080325;28;20016;-66
2020/12/16 11:13:00;;;;;;;8.57;7.10;;;;;;;;;;5073757;28;20023;-67
2020/12/16 11:15:25;;;;;;;9.68;6.85;;;;;;;;;;5071747;28;20024;-66
2020/12/16 11:17:50;;;;;;;7.13;6.43;;;;;;;;;;5054458;28;20037;-66
2020/12/16 11:20:15;;;;;;;6.87;6.23;;;;;;;;;;5055676;28;20051;-67
2020/12/16 11:22:40;;;;;;;7.37;6.67;;;;;;;;;;5056160;28;20255;-68
2020/12/16 11:25:05;;;;;;;6.97;6.28;;;;;;;;;;5053747;28;20247;-70
2020/12/16 11:27:31;;;;;;;6.90;6.30;;;;;;;;;;5054132;28;20150;-69
2020/12/16 11:29:56;;;;;;;7.90;6.35;;;;;;;;;;5061715;28;20262;-69
2020/12/16 11:32:21;;;;;;;7.28;6.55;;;;;;;;;;5067554;28;20046;-68
2020/12/16 11:34:46;;;;;;;6.80;6.20;;;;;;;;;;5072722;28;20461;-67
2020/12/16 11:37:13;;;;;;;6.45;5.85;;;;;;;;;;5072986;28;20187;-67
2020/12/16 11:39:39;;;;;;;6.90;6.20;;;;;;;;;;5072790;28;20021;-66
2020/12/16 11:42:04;;;;;;;6.20;5.60;;;;;;;;;;5072416;28;20017;-67
2020/12/16 11:44:29;;;;;;;5.93;5.43;;;;;;;;;;5074915;28;20535;-68
2020/12/16 11:46:58;;;;;;;6.22;5.43;;;;;;;;;;5072250;28;20461;-68
2020/12/16 11:49:23;;;;;;;6.22;5.50;;;;;;;;;;5061188;28;20079;-68
2020/12/16 11:51:48;;;;;;;6.55;5.55;;;;;;;;;;5060905;28;20063;-69
2020/12/16 11:54:15;;;;;;;5.68;5.18;;;;;;;;;;5066009;28;20455;-70
2020/12/16 11:56:40;;;;;;;7.28;5.93;;;;;;;;;;5053314;28;20048;-68
2020/12/16 11:59:05;;;;;;;6.20;5.60;;;;;;;;;;5053123;28;20079;-69
2020/12/16 12:01:31;;;;;;;6.28;5.68;;;;;;;;;;5052989;28;20024;-69
2020/12/16 12:03:56;;;;;;;6.18;5.45;;;;;;;;;;5051652;28;20067;-68
2020/12/16 12:06:21;;;;;;;5.82;5.20;;;;;;;;;;5052764;28;20025;-69
2020/12/16 12:08:47;;;;;;;6.20;5.63;;;;;;;;;;5052853;28;20091;-68
2020/12/16 12:11:15;;;;;;;6.93;6.33;;;;;;;;;;5052524;28;20289;-68
2020/12/16 12:13:40;;;;;;;8.10;5.88;;;;;;;;;;5052030;28;20259;-67
2020/12/16 12:16:06;;;;;;;9.90;7.93;;;;;;;;;;5052651;28;20029;-65
2020/12/16 12:18:32;;;;;;;6.93;6.20;;;;;;;;;;5052833;28;20073;-66
2020/12/16 12:20:57;;;;;;;6.80;6.20;;;;;;;;;;5052812;28;20454;-66
2020/12/16 12:23:22;;;;;;;8.37;7.50;;;;;;;;;;5052792;28;20029;-67
2020/12/16 12:25:47;;;;;;;6.73;6.07;;;;;;;;;;5052827;28;20017;-67
2020/12/16 12:28:12;;;;;;;7.07;6.37;;;;;;;;;;5052572;28;20024;-68
2020/12/16 12:30:39;;;;;;;6.80;6.00;;;;;;;;;;5052537;28;20535;-68
2020/12/16 12:33:04;;;;;;;7.47;6.65;;;;;;;;;;5052297;28;20301;-66
2020/12/16 12:35:29;;;;;;;6.90;6.07;;;;;;;;;;5054960;28;20098;-68
2020/12/16 12:37:55;;;;;;;8.45;6.50;;;;;;;;;;5055391;28;20581;-68
2020/12/16 12:40:21;;;;;;;6.25;5.65;;;;;;;;;;5055315;28;20020;-68
2020/12/16 12:42:47;;;;;;;6.63;6.03;;;;;;;;;;5063274;28;20017;-69
2020/12/16 12:45:12;;;;;;;6.90;6.20;;;;;;;;;;5062306;28;20417;-68
2020/12/16 12:47:37;;;;;;;6.97;6.32;;;;;;;;;;5065631;28;20051;-68
2020/12/16 12:50:03;;;;;;;6.50;5.90;;;;;;;;;;5072568;28;20017;-69
2020/12/16 12:52:28;;;;;;;6.95;6.25;;;;;;;;;;5072145;28;20055;-69
2020/12/16 12:54:53;;;;;;;7.30;6.60;;;;;;;;;;5072625;28;20518;-65
2020/12/16 12:57:20;;;;;;;6.88;6.28;;;;;;;;;;5072403;28;20025;-66
2020/12/16 12:59:46;;;;;;;8.82;6.47;;;;;;;;;;5057401;28;20678;-65
2020/12/16 13:02:11;;;;;;;7.15;6.40;;;;;;;;;;5051805;28;20017;-65
2020/12/16 13:04:36;;;;;;;6.88;6.18;;;;;;;;;;5052342;28;20013;-65
2020/12/16 13:07:01;;;;;;;8.87;6.60;;;;;;;;;;5050972;28;20025;-65
2020/12/16 13:09:26;;;;;;;6.93;5.80;;;;;;;;;;5053171;28;20109;-66
2020/12/16 13:11:52;;;;;;;7.03;6.32;;;;;;;;;;5051747;28;20255;-66
2020/12/16 13:14:17;;;;;;;6.85;6.15;;;;;;;;;;5052083;28;20150;-68
2020/12/16 13:16:43;;;;;;;6.28;5.68;;;;;;;;;;5052229;28;20045;-64
2020/12/16 13:19:10;;;;;;;6.30;5.70;;;;;;;;;;5051874;28;20123;-64
2020/12/16 13:21:35;;;;;;;8.13;5.95;;;;;;;;;;5051858;28;20370;-65
2020/12/16 13:24:01;;;;;;;8.73;5.90;;;;;;;;;;5065155;28;20024;-69
2020/12/16 13:26:26;;;;;;;6.25;5.65;;;;;;;;;;5079652;28;20286;-67
2020/12/16 13:28:51;;;;;;;6.60;5.93;;;;;;;;;;5078296;28;20073;-68
2020/12/16 13:31:16;;;;;;;6.93;6.22;;;;;;;;;;5078450;28;20331;-67
2020/12/16 13:33:41;;;;;;;7.43;6.68;;;;;;;;;;5078341;28;20367;-67
2020/12/16 13:36:07;;;;;;;7.57;6.07;;;;;;;;;;5075819;28;20028;-68
2020/12/16 13:38:32;;;;;;;6.93;6.30;;;;;;;;;;5075689;28;20251;-69
2020/12/16 13:40:57;;;;;;;7.03;6.33;;;;;;;;;;5075936;28;20813;-69
2020/12/16 13:43:28;;;;;;;6.90;6.20;;;;;;;;;;5075015;28;20271;-69
2020/12/16 13:45:53;;;;;;;8.65;6.47;;;;;;;;;;5076172;28;20009;-68
2020/12/16 13:48:18;;;;;;;7.43;6.07;;;;;;;;;;5075814;28;20020;-68
2020/12/16 13:50:44;;;;;;;7.03;5.82;;;;;;;;;;5075046;28;20744;-68
2020/12/16 13:53:10;;;;;;;8.02;6.35;;;;;;;;;;5074703;28;20330;-65
2020/12/16 13:55:35;;;;;;;6.32;5.72;;;;;;;;;;5075352;28;20020;-67
2020/12/16 13:58:00;;;;;;;12.77;7.47;;;;;;;;;;5075251;28;20024;-64
2020/12/16 14:00:25;;;;;;;7.43;6.50;;;;;;;;;;5074605;28;20302;-64
2020/12/16 14:02:50;;;;;;;7.93;6.73;;;;;;;;;;5060543;28;20255;-66
2020/12/16 14:05:16;;;;;;;11.23;6.80;;;;;;;;;;5055592;28;20240;-65
2020/12/16 14:07:42;;;;;;;8.93;6.60;;;;;;;;;;5055378;28;20107;-65
2020/12/16 14:10:07;;;;;;;8.10;6.90;;;;;;;;;;5055268;28;20025;-65
2020/12/16 14:12:34;;;;;;;8.15;6.50;;;;;;;;;;5054951;28;20024;-66
2020/12/16 14:14:59;;;;;;;8.02;7.22;;;;;;;;;;5066829;28;20036;-64
2020/12/16 14:17:24;;;;;;;7.57;6.87;;;;;;;;;;5061887;28;20520;-64
2020/12/16 14:19:49;;;;;;;6.97;6.23;;;;;;;;;;5054979;28;20271;-64